Aeroporto :
LOGIN :

Iscrizione | Disclaimer

   EN    FR    IT 

 










Sommario :    VFR   VFR Marginale   IFR   IFR Intensivo   IFR Molto Intensivo
Visibilità : 
Base nubi : 
>= 8 km
>= 3000ft
5 / 8 km
1000 / 3000 ft
1500m / 5 km
500 / 1000 ft
800 / 1500m
200 / 500 ft
< 800m
< 200 ft
Simboli :   Temporali  Nebbia  Neve Forte  Precipitazioni Forti  Vento > 20 kt
SIGMETs :   Varie  Temporali  Ghiacco  Turbolenza  Onda orograficha  Ceneri Vulcaniche







- Altitudine del aeroporto : 220 ft
- Codice IATA : CWL
- Carte del aeroporto


EGFF - Cardiff Rhoose

ULTIMO METAR :
  • 191150Z 26008KT 9999 FEW032 SCT049 14/10 Q1011

METARs OBSOLETI :
  • 191120Z AUTO 23009KT 9999 NCD 14/09 Q1011
  • 191050Z AUTO 23009KT 9999 FEW042 15/10 Q1011
  • 191020Z 24009KT 9999 FEW024 SCT032 15/10 Q1011
  • 190950Z AUTO 22006KT 190V250 9999 BKN023 BKN028 14/10 Q1011
  • 190920Z AUTO 25007KT 9999 SCT024 BKN028 14/10 Q1010

TAF TAF EGFF
Valido dal 19 a 12 ore il 20 a 12 ore UTC


191057Z 1912/2012 26010KT 9999 SCT030
PROB30
TEMPO 1912/1919 4000 +SHRA
BECMG 1918/1921 VRB03KT
PROB30
TEMPO 1919/2008 8000
BECMG 2009/2012 26010KT
PROB30
TEMPO 2010/2012 6000 SHRA
ATIS : +44 1446 729 319
Nessun NOTAM noto per questo aeroporto.



MetMap, La meteo Aeronautica in un colpo d'occhio ! - Copyright ORBIFLY Dicembre 2007 - Disclaimer

ORBIFLY MET'MAP TEAM :

Programmazione e sviluppo : Alexandra Zaïnal
Concezione e sviluppo : Baudouin d'Aumeries
Co-Programmazione e sviluppo : Marc-Olivier Méhu
Supporto tecnico e logistico : Manuel Goepfert
Aiuto per la traduzione : Arnaldo La Scala

Contatto : metmap@orbifly.com




FONTI E CREDITI :

   NOAA